Time;durP1;ratioP1;P1;durP2;ratioP2;P2;SDS_P1;SDS_P2;PMS_P1;PMS_P2;Temp;Humidity;BMP_temperature;BMP_pressure;BME280_temperature;BME280_humidity;BME280_pressure;Samples;Min_cycle;Max_cycle;Signal;HPM_P1;HPM_P2
2023/05/31 00:02:14;;;;;;;3.75;2.80;;;14.70;94.90;;;;;;4984188;28;20061;-87
2023/05/31 00:04:39;;;;;;;4.53;3.33;;;14.70;94.90;;;;;;5000442;28;20033;-86
2023/05/31 00:07:06;;;;;;;5.55;3.60;;;14.60;94.90;;;;;;4996405;28;20031;-86
2023/05/31 00:09:32;;;;;;;6.18;3.30;;;14.60;95.00;;;;;;4982116;28;20462;-86
2023/05/31 00:11:58;;;;;;;5.45;3.55;;;14.60;95.10;;;;;;5000245;28;20034;-87
2023/05/31 00:14:23;;;;;;;4.00;2.92;;;14.60;95.10;;;;;;4982934;28;20026;-86
2023/05/31 00:16:49;;;;;;;3.40;2.80;;;14.60;95.10;;;;;;5000011;28;20053;-86
2023/05/31 00:19:15;;;;;;;3.28;2.83;;;14.60;95.10;;;;;;4983627;28;20036;-87
2023/05/31 00:21:42;;;;;;;4.20;3.00;;;14.60;95.40;;;;;;5000105;28;20070;-86
2023/05/31 00:24:08;;;;;;;4.53;3.30;;;14.60;95.10;;;;;;4980497;28;20019;-87
2023/05/31 00:26:34;;;;;;;4.72;3.58;;;14.60;95.20;;;;;;4989366;28;20034;-85
2023/05/31 00:28:59;;;;;;;5.53;3.45;;;14.60;95.20;;;;;;4964343;28;20034;-85
2023/05/31 00:31:25;;;;;;;5.75;3.13;;;14.50;95.30;;;;;;4964252;28;20462;-86
2023/05/31 00:33:51;;;;;;;6.50;3.60;;;14.50;95.30;;;;;;4983634;28;20010;-86
2023/05/31 00:36:16;;;;;;;4.82;3.60;;;14.50;95.30;;;;;;4981302;28;20189;-86
2023/05/31 00:38:42;;;;;;;5.35;3.60;;;14.50;95.40;;;;;;5017323;28;20536;-82
2023/05/31 00:41:09;;;;;;;7.07;4.28;;;14.50;95.40;;;;;;5015159;28;20494;-86
2023/05/31 00:43:35;;;;;;;5.50;3.88;;;14.50;95.50;;;;;;5017646;28;20451;-86
2023/05/31 00:46:01;;;;;;;6.78;3.92;;;14.40;95.50;;;;;;4966754;28;20034;-86
2023/05/31 00:48:29;;;;;;;5.00;3.70;;;14.50;95.60;;;;;;4980163;28;20030;-87
2023/05/31 00:50:55;;;;;;;5.40;4.03;;;14.40;95.60;;;;;;4996062;28;20034;-84
2023/05/31 00:53:22;;;;;;;7.03;4.13;;;14.40;95.60;;;;;;5001975;28;20029;-86
2023/05/31 00:55:48;;;;;;;6.32;4.20;;;14.40;95.60;;;;;;4999789;28;20064;-86
2023/05/31 00:58:15;;;;;;;6.50;4.28;;;14.40;95.70;;;;;;4999474;28;20107;-85
2023/05/31 01:00:44;;;;;;;4.75;3.67;;;14.40;95.70;;;;;;4983949;28;20524;-86
2023/05/31 01:03:12;;;;;;;8.15;4.47;;;14.30;95.70;;;;;;5011159;28;20064;-86
2023/05/31 01:05:39;;;;;;;5.72;4.28;;;14.40;95.80;;;;;;5005784;28;20010;-85
2023/05/31 01:08:05;;;;;;;7.55;4.50;;;14.30;95.90;;;;;;4998666;28;20034;-86
2023/05/31 01:10:31;;;;;;;5.55;4.38;;;14.30;96.00;;;;;;5019782;28;20010;-86
2023/05/31 01:13:05;;;;;;;7.50;3.92;;;14.20;96.00;;;;;;5029606;28;20034;-86
2023/05/31 01:15:39;;;;;;;7.07;4.53;;;14.20;96.30;;;;;;5014539;28;20010;-87
2023/05/31 01:18:10;;;;;;;6.88;4.57;;;14.20;96.10;;;;;;4999804;28;20492;-85
2023/05/31 01:20:46;;;;;;;7.32;4.35;;;14.20;96.10;;;;;;4997543;28;20034;-84
2023/05/31 01:23:49;;;;;;;6.85;4.70;;;14.20;96.10;;;;;;4981568;28;20467;-84
2023/05/31 01:26:30;;;;;;;6.47;4.60;;;14.20;96.20;;;;;;4999003;28;20462;-86
2023/05/31 01:29:01;;;;;;;7.90;5.20;;;14.20;96.10;;;;;;5016199;28;20033;-86
2023/05/31 01:31:30;;;;;;;6.93;5.22;;;14.20;96.20;;;;;;5016391;28;20066;-86
2023/05/31 01:33:56;;;;;;;6.65;4.90;;;14.20;96.20;;;;;;4989682;28;20031;-85
2023/05/31 01:36:22;;;;;;;6.07;4.30;;;14.20;96.20;;;;;;4995207;28;20458;-85
2023/05/31 01:38:51;;;;;;;6.47;5.00;;;14.10;96.20;;;;;;4989996;28;20062;-84
2023/05/31 01:41:17;;;;;;;6.13;4.25;;;14.20;96.30;;;;;;4982609;28;20476;-86
2023/05/31 01:43:44;;;;;;;8.13;5.40;;;14.10;96.30;;;;;;4982357;28;20026;-85
2023/05/31 01:46:14;;;;;;;8.07;5.72;;;14.10;96.30;;;;;;5015682;28;20027;-85
2023/05/31 01:48:41;;;;;;;7.63;4.55;;;14.10;96.30;;;;;;4998648;28;20116;-86
2023/05/31 01:51:10;;;;;;;8.57;5.80;;;14.10;96.40;;;;;;5002129;28;20048;-85
2023/05/31 01:53:36;;;;;;;8.15;5.65;;;14.10;96.40;;;;;;5035324;28;20022;-86
2023/05/31 01:56:04;;;;;;;8.23;6.32;;;14.00;96.50;;;;;;5018020;28;20040;-85
2023/05/31 01:58:36;;;;;;;7.43;5.35;;;13.90;96.60;;;;;;5034978;28;20025;-86
2023/05/31 02:01:01;;;;;;;8.35;6.00;;;13.90;96.70;;;;;;5015041;28;20036;-85
2023/05/31 02:03:28;;;;;;;8.18;6.22;;;13.90;96.70;;;;;;4981497;28;20062;-86
2023/05/31 02:05:58;;;;;;;8.10;6.10;;;13.90;96.80;;;;;;4981549;28;20025;-86
2023/05/31 02:08:24;;;;;;;7.93;6.23;;;13.90;96.90;;;;;;4986338;28;20083;-86
2023/05/31 02:10:53;;;;;;;8.75;6.32;;;13.80;96.90;;;;;;5017435;28;20461;-86
2023/05/31 02:13:20;;;;;;;8.68;6.20;;;13.80;97.00;;;;;;4996579;28;20459;-86
2023/05/31 02:15:46;;;;;;;8.45;6.10;;;13.80;97.00;;;;;;4984562;28;20420;-86
2023/05/31 02:18:12;;;;;;;10.95;7.93;;;13.80;97.00;;;;;;4981656;28;20690;-86
2023/05/31 02:20:38;;;;;;;9.80;6.90;;;13.80;97.10;;;;;;4998176;28;20034;-86
2023/05/31 02:23:04;;;;;;;9.27;6.88;;;13.70;97.20;;;;;;4997684;28;20113;-86
2023/05/31 02:25:30;;;;;;;9.20;7.05;;;13.70;97.20;;;;;;4981397;28;20480;-86
2023/05/31 02:27:57;;;;;;;10.73;7.45;;;13.70;97.20;;;;;;4989138;28;20487;-86
2023/05/31 02:30:26;;;;;;;9.63;7.35;;;13.70;97.30;;;;;;4982925;28;20030;-86
2023/05/31 02:32:53;;;;;;;9.00;6.32;;;13.60;97.40;;;;;;4990937;28;20366;-85
2023/05/31 02:35:19;;;;;;;9.27;6.72;;;13.70;97.30;;;;;;4986414;28;20025;-85
2023/05/31 02:37:46;;;;;;;12.07;7.75;;;13.70;97.30;;;;;;4993903;28;20070;-87
2023/05/31 02:40:13;;;;;;;10.57;7.28;;;13.70;97.40;;;;;;4968631;28;20138;-85
2023/05/31 02:42:40;;;;;;;9.93;7.30;;;13.60;97.40;;;;;;4980975;28;20026;-86
2023/05/31 02:45:07;;;;;;;9.77;7.22;;;13.60;97.50;;;;;;5003773;28;20014;-85
2023/05/31 02:47:33;;;;;;;10.73;7.18;;;13.60;97.40;;;;;;5021385;28;20010;-85
2023/05/31 02:49:59;;;;;;;8.57;6.68;;;13.50;97.50;;;;;;5005397;28;20014;-82
2023/05/31 02:52:26;;;;;;;7.78;5.93;;;13.50;97.50;;;;;;5021615;28;20010;-84
2023/05/31 02:54:52;;;;;;;9.55;7.20;;;13.60;97.50;;;;;;5020034;28;20037;-86
2023/05/31 02:57:18;;;;;;;9.98;7.00;;;13.60;97.50;;;;;;5019849;28;20026;-83
2023/05/31 02:59:44;;;;;;;8.75;6.88;;;13.60;97.50;;;;;;5013854;28;20049;-85
2023/05/31 03:02:10;;;;;;;9.15;6.82;;;13.60;97.50;;;;;;4996450;28;20050;-83
2023/05/31 03:04:36;;;;;;;9.45;7.32;;;13.50;97.50;;;;;;4994216;28;20040;-84
2023/05/31 03:07:01;;;;;;;9.70;7.45;;;13.50;97.50;;;;;;4982639;28;20102;-86
2023/05/31 03:09:27;;;;;;;9.45;7.47;;;13.50;97.60;;;;;;4981297;28;20088;-86
2023/05/31 03:11:53;;;;;;;9.57;7.40;;;13.50;97.60;;;;;;5015173;28;20458;-85
2023/05/31 03:14:18;;;;;;;8.95;7.38;;;13.50;97.60;;;;;;4980498;28;20037;-86
2023/05/31 03:16:45;;;;;;;11.32;7.22;;;13.50;97.70;;;;;;4980949;28;20030;-85
2023/05/31 03:19:12;;;;;;;10.45;7.72;;;13.40;97.80;;;;;;4996785;28;20034;-85
2023/05/31 03:21:38;;;;;;;10.05;7.80;;;13.40;97.80;;;;;;4996630;28;20044;-85
2023/05/31 03:24:04;;;;;;;10.48;7.38;;;13.40;97.90;;;;;;5014062;28;20022;-85
2023/05/31 03:26:30;;;;;;;10.73;7.60;;;13.40;97.90;;;;;;4996881;28;20058;-85
2023/05/31 03:28:56;;;;;;;11.35;8.25;;;13.40;97.90;;;;;;4996667;28;20045;-85
2023/05/31 03:31:22;;;;;;;10.02;7.30;;;13.40;97.90;;;;;;5014365;28;20033;-85
2023/05/31 03:33:47;;;;;;;9.40;7.57;;;13.40;97.90;;;;;;4997136;28;20021;-86
2023/05/31 03:36:13;;;;;;;9.38;7.38;;;13.40;97.90;;;;;;4996957;28;20125;-86
2023/05/31 03:38:39;;;;;;;12.35;7.47;;;13.50;97.90;;;;;;4980579;28;20387;-86
2023/05/31 03:41:04;;;;;;;11.25;7.72;;;13.50;97.90;;;;;;4980680;28;20106;-86
2023/05/31 03:43:30;;;;;;;11.40;7.68;;;13.40;97.90;;;;;;5014449;28;20033;-86
2023/05/31 03:46:00;;;;;;;11.75;7.95;;;13.50;97.90;;;;;;4996615;28;20072;-86
2023/05/31 03:48:29;;;;;;;11.52;8.18;;;13.50;98.00;;;;;;4981601;28;20196;-85
2023/05/31 03:50:56;;;;;;;10.98;8.60;;;13.50;98.00;;;;;;4996539;28;20038;-86
2023/05/31 03:53:22;;;;;;;12.63;8.98;;;13.40;98.00;;;;;;5013707;28;20543;-86
2023/05/31 03:55:48;;;;;;;10.88;8.23;;;13.30;98.10;;;;;;4996716;28;20113;-86
2023/05/31 03:58:13;;;;;;;11.20;8.30;;;13.30;98.20;;;;;;5013925;28;20045;-86
2023/05/31 04:00:41;;;;;;;11.55;7.90;;;13.40;98.30;;;;;;5014108;28;20030;-86
2023/05/31 04:03:07;;;;;;;11.00;7.72;;;13.30;98.20;;;;;;4980127;28;20073;-85
2023/05/31 04:05:33;;;;;;;12.10;8.38;;;13.40;98.30;;;;;;4996393;28;20026;-86
2023/05/31 04:08:02;;;;;;;10.45;8.00;;;13.40;98.30;;;;;;4980347;28;20030;-86
2023/05/31 04:10:27;;;;;;;13.77;9.68;;;13.40;98.30;;;;;;4996104;28;20030;-86
2023/05/31 04:12:53;;;;;;;13.30;9.30;;;13.40;98.30;;;;;;4980400;28;20088;-86
2023/05/31 04:15:19;;;;;;;13.50;8.68;;;13.30;98.30;;;;;;4987434;28;20035;-86
2023/05/31 04:17:45;;;;;;;11.88;8.90;;;13.30;98.40;;;;;;4980375;28;20053;-86
2023/05/31 04:20:13;;;;;;;13.45;8.75;;;13.40;98.40;;;;;;4996901;28;20030;-85
2023/05/31 04:22:38;;;;;;;10.98;8.50;;;13.40;98.40;;;;;;4981361;28;20069;-86
2023/05/31 04:25:09;;;;;;;11.38;8.80;;;13.40;98.50;;;;;;5012786;28;20030;-85
2023/05/31 04:27:38;;;;;;;12.27;7.63;;;13.50;98.40;;;;;;5004691;28;20061;-84
2023/05/31 04:30:08;;;;;;;11.82;9.00;;;13.50;98.40;;;;;;5021429;28;20281;-85
2023/05/31 04:32:34;;;;;;;13.45;9.63;;;13.50;98.40;;;;;;5021452;28;20027;-84
2023/05/31 04:35:03;;;;;;;14.43;10.25;;;13.50;98.40;;;;;;5000709;28;20053;-85
2023/05/31 04:37:29;;;;;;;14.88;10.50;;;13.40;98.50;;;;;;5020257;28;20024;-85
2023/05/31 04:39:56;;;;;;;16.38;10.25;;;13.50;98.60;;;;;;5037155;28;20037;-86
2023/05/31 04:42:24;;;;;;;16.40;10.65;;;13.50;98.60;;;;;;5019384;28;20049;-86
2023/05/31 04:45:01;;;;;;;14.25;9.60;;;13.50;98.60;;;;;;5019693;28;20073;-85
2023/05/31 04:47:36;;;;;;;13.55;8.93;;;13.50;98.70;;;;;;4985008;28;20068;-85
2023/05/31 04:50:03;;;;;;;12.38;9.90;;;13.60;98.70;;;;;;5017098;28;20041;-85
2023/05/31 04:52:30;;;;;;;15.90;10.07;;;13.60;98.60;;;;;;4983195;28;20065;-86
2023/05/31 04:54:57;;;;;;;15.20;11.27;;;13.60;98.60;;;;;;5014318;28;20068;-84
2023/05/31 04:57:24;;;;;;;16.85;10.60;;;13.70;98.60;;;;;;5013312;28;20018;-84
2023/05/31 04:59:50;;;;;;;14.32;10.40;;;13.60;98.60;;;;;;4982922;28;20042;-85
2023/05/31 05:02:17;;;;;;;14.38;10.45;;;13.60;98.70;;;;;;4982760;28;20046;-86
2023/05/31 05:04:43;;;;;;;16.15;11.43;;;13.60;98.70;;;;;;4988502;28;20034;-86
2023/05/31 05:07:15;;;;;;;15.45;11.68;;;13.60;99.00;;;;;;4985089;28;20088;-86
2023/05/31 05:09:40;;;;;;;16.88;10.95;;;13.60;98.80;;;;;;4991216;28;20421;-86
2023/05/31 05:12:07;;;;;;;15.95;11.50;;;13.60;98.90;;;;;;4992849;28;20085;-86
2023/05/31 05:14:33;;;;;;;15.55;11.25;;;13.70;98.90;;;;;;4997903;28;20042;-86
2023/05/31 05:16:59;;;;;;;14.68;11.40;;;13.70;98.80;;;;;;4974648;28;20033;-86
2023/05/31 05:19:25;;;;;;;16.08;11.35;;;13.70;98.80;;;;;;5007207;28;20374;-86
2023/05/31 05:21:50;;;;;;;15.98;11.73;;;13.80;98.80;;;;;;4965425;28;20034;-85
2023/05/31 05:24:16;;;;;;;14.43;10.90;;;13.80;98.70;;;;;;5020518;28;20079;-85
2023/05/31 05:26:43;;;;;;;18.00;11.55;;;13.80;98.70;;;;;;4995967;28;20053;-82
2023/05/31 05:29:08;;;;;;;17.85;12.60;;;13.90;98.70;;;;;;5010987;28;20037;-85
2023/05/31 05:31:34;;;;;;;16.60;11.65;;;13.90;98.70;;;;;;4997017;28;20026;-85
2023/05/31 05:33:59;;;;;;;16.42;12.43;;;13.90;98.70;;;;;;4966735;28;20033;-85
2023/05/31 05:36:25;;;;;;;17.70;12.73;;;13.90;98.80;;;;;;4983056;28;20040;-85
2023/05/31 05:38:51;;;;;;;16.65;11.48;;;13.80;98.80;;;;;;4971467;28;20385;-84
2023/05/31 05:41:17;;;;;;;14.30;11.15;;;13.90;98.80;;;;;;5004332;28;20054;-83
2023/05/31 05:43:42;;;;;;;14.75;10.68;;;13.90;98.80;;;;;;4952861;28;20035;-85
2023/05/31 05:46:08;;;;;;;14.82;10.30;;;14.00;98.80;;;;;;4996315;28;20097;-86
2023/05/31 05:48:34;;;;;;;14.70;11.85;;;14.00;99.00;;;;;;4976815;28;20068;-86
2023/05/31 05:51:00;;;;;;;16.88;10.95;;;14.10;98.70;;;;;;4996399;28;20081;-86
2023/05/31 05:53:26;;;;;;;14.43;10.57;;;14.10;98.70;;;;;;4963126;28;20475;-84
2023/05/31 05:55:53;;;;;;;14.25;10.38;;;14.10;98.70;;;;;;4979729;28;20134;-85
2023/05/31 05:58:19;;;;;;;13.10;9.23;;;14.10;98.70;;;;;;4985238;28;20041;-87
2023/05/31 06:00:45;;;;;;;11.50;8.70;;;14.20;98.60;;;;;;4969765;28;20018;-86
2023/05/31 06:03:12;;;;;;;13.15;9.70;;;14.30;98.60;;;;;;4991657;28;20054;-86
2023/05/31 06:05:38;;;;;;;13.13;9.65;;;14.30;98.50;;;;;;5017145;28;20027;-86
2023/05/31 06:08:05;;;;;;;16.00;10.52;;;14.40;98.50;;;;;;5013428;28;20025;-86
2023/05/31 06:10:31;;;;;;;13.48;10.15;;;14.40;98.40;;;;;;4967265;28;20049;-85
2023/05/31 06:12:57;;;;;;;12.05;9.43;;;14.40;98.40;;;;;;4998043;28;20014;-85
2023/05/31 06:15:24;;;;;;;16.90;10.57;;;14.40;98.30;;;;;;4998549;28;20082;-82
2023/05/31 06:17:52;;;;;;;12.50;9.40;;;14.50;98.30;;;;;;5012737;28;20372;-83
2023/05/31 06:20:18;;;;;;;14.40;9.38;;;14.50;98.30;;;;;;4965129;28;20037;-84
2023/05/31 06:22:43;;;;;;;13.45;8.88;;;14.50;98.30;;;;;;4962203;28;20030;-86
2023/05/31 06:25:09;;;;;;;11.95;8.02;;;14.60;98.30;;;;;;4994289;28;20041;-86
2023/05/31 06:27:35;;;;;;;10.32;7.75;;;14.70;98.30;;;;;;5014875;28;20026;-86
2023/05/31 06:30:02;;;;;;;9.82;7.13;;;14.80;98.20;;;;;;4961057;28;20046;-86
2023/05/31 06:32:28;;;;;;;10.27;6.75;;;14.90;98.10;;;;;;4993103;28;20026;-87
2023/05/31 06:34:57;;;;;;;10.57;7.47;;;15.00;98.00;;;;;;4985365;28;20451;-88
2023/05/31 06:37:22;;;;;;;10.63;7.70;;;15.00;97.90;;;;;;4986336;28;20085;-87
2023/05/31 06:39:51;;;;;;;10.18;7.10;;;15.00;97.80;;;;;;4975239;28;20034;-87
2023/05/31 06:42:17;;;;;;;9.98;7.03;;;15.10;97.80;;;;;;4976317;28;20044;-87
2023/05/31 06:44:43;;;;;;;11.07;7.75;;;15.20;97.80;;;;;;4975657;28;20041;-87
2023/05/31 06:47:09;;;;;;;11.00;7.53;;;15.30;97.60;;;;;;5015250;28;20025;-87
2023/05/31 06:49:35;;;;;;;11.68;7.97;;;15.40;97.60;;;;;;5015614;28;20030;-87
2023/05/31 06:52:01;;;;;;;9.30;6.50;;;15.40;97.50;;;;;;5015343;28;20026;-87
2023/05/31 06:54:27;;;;;;;11.13;7.63;;;15.50;97.50;;;;;;5015665;28;20030;-89
2023/05/31 06:56:54;;;;;;;12.43;7.32;;;15.50;97.40;;;;;;5014147;28;20029;-88
2023/05/31 06:59:20;;;;;;;14.98;8.65;;;15.60;97.30;;;;;;5003550;28;20041;-89
2023/05/31 07:01:46;;;;;;;11.02;7.25;;;15.60;97.10;;;;;;4995013;28;20049;-87
2023/05/31 07:04:14;;;;;;;13.32;8.35;;;15.70;97.10;;;;;;4977651;28;20498;-87
2023/05/31 07:06:40;;;;;;;16.70;8.27;;;15.70;97.00;;;;;;4978201;28;20027;-88
2023/05/31 07:09:06;;;;;;;16.52;8.57;;;15.80;96.90;;;;;;4978624;28;20038;-88
2023/05/31 07:11:32;;;;;;;15.45;8.45;;;15.80;96.70;;;;;;4994872;28;20041;-88
2023/05/31 07:14:02;;;;;;;15.48;7.18;;;15.80;96.70;;;;;;4993804;28;20085;-88
2023/05/31 07:16:34;;;;;;;12.87;7.77;;;15.90;96.70;;;;;;4967067;28;20125;-87
2023/05/31 07:18:59;;;;;;;14.93;7.53;;;15.90;96.60;;;;;;4995361;28;20035;-88
2023/05/31 07:21:25;;;;;;;11.93;7.63;;;16.00;96.60;;;;;;4994417;28;20429;-88
2023/05/31 07:23:51;;;;;;;13.20;8.02;;;16.10;96.50;;;;;;4997854;28;20030;-88
2023/05/31 07:26:17;;;;;;;13.18;7.38;;;16.20;96.50;;;;;;4997565;28;20058;-87
2023/05/31 07:28:44;;;;;;;13.43;7.95;;;16.30;96.50;;;;;;4993293;28;20484;-87
2023/05/31 07:31:10;;;;;;;11.05;7.28;;;16.30;96.40;;;;;;5013585;28;20021;-88
2023/05/31 07:33:35;;;;;;;11.70;7.57;;;16.40;96.30;;;;;;5013684;28;20030;-87
2023/05/31 07:36:01;;;;;;;9.57;6.75;;;16.50;96.30;;;;;;4997678;28;20033;-88
2023/05/31 07:38:27;;;;;;;10.73;6.15;;;16.60;96.30;;;;;;4997168;28;20478;-86
2023/05/31 07:40:53;;;;;;;10.52;6.68;;;16.70;96.30;;;;;;5006152;28;20479;-87
2023/05/31 07:43:21;;;;;;;11.27;6.70;;;16.80;96.20;;;;;;4975962;28;20170;-89
2023/05/31 07:45:48;;;;;;;11.98;7.15;;;16.90;96.00;;;;;;4991094;28;20007;-87
2023/05/31 07:48:14;;;;;;;11.10;7.40;;;16.90;95.80;;;;;;5017363;28;20035;-88
2023/05/31 07:50:40;;;;;;;9.68;6.45;;;17.00;95.70;;;;;;4999667;28;20030;-87
2023/05/31 07:53:05;;;;;;;12.50;6.93;;;17.00;95.70;;;;;;5011334;28;20127;-87
2023/05/31 07:56:00;;;;;;;10.35;7.25;;;17.10;95.50;;;;;;5018600;28;20034;-87
2023/05/31 07:58:27;;;;;;;12.10;6.90;;;17.20;95.40;;;;;;4998486;28;20045;-88
2023/05/31 08:00:53;;;;;;;10.18;6.20;;;17.30;95.50;;;;;;5001517;28;20072;-87
2023/05/31 08:03:19;;;;;;;11.43;5.63;;;17.40;95.50;;;;;;4998519;28;20133;-89
2023/05/31 08:05:45;;;;;;;9.25;5.78;;;17.50;95.50;;;;;;4982115;28;20072;-88
2023/05/31 08:08:13;;;;;;;11.07;5.80;;;17.60;95.40;;;;;;4999197;28;20035;-88
2023/05/31 08:10:38;;;;;;;12.02;6.60;;;17.70;95.30;;;;;;4998052;28;20023;-88
2023/05/31 08:13:04;;;;;;;8.93;5.93;;;17.80;95.00;;;;;;4987624;28;20061;-88
2023/05/31 08:15:30;;;;;;;9.55;5.25;;;17.90;95.00;;;;;;5005432;28;20015;-87
2023/05/31 08:17:56;;;;;;;10.57;6.07;;;18.00;94.90;;;;;;4978864;28;20490;-88
2023/05/31 08:20:21;;;;;;;9.35;5.97;;;18.00;94.80;;;;;;4998563;28;20023;-89
2023/05/31 08:22:47;;;;;;;7.82;5.18;;;18.10;94.60;;;;;;5010721;28;20034;-90
2023/05/31 08:25:14;;;;;;;8.82;5.38;;;18.20;94.60;;;;;;4978611;28;20065;-89
2023/05/31 08:27:40;;;;;;;9.98;4.80;;;18.30;94.40;;;;;;4979581;28;20114;-89
2023/05/31 08:30:09;;;;;;;8.82;5.30;;;18.30;94.30;;;;;;4980552;28;20463;-90
2023/05/31 08:32:35;;;;;;;7.82;4.70;;;18.40;94.20;;;;;;4997262;28;20038;-88
2023/05/31 08:35:01;;;;;;;6.97;4.18;;;18.50;94.10;;;;;;4980771;28;20034;-88
2023/05/31 08:37:27;;;;;;;9.95;4.22;;;18.60;94.10;;;;;;4970450;28;20062;-88
2023/05/31 08:39:52;;;;;;;6.75;4.22;;;18.70;94.00;;;;;;4960577;28;20079;-88
2023/05/31 08:42:28;;;;;;;10.63;5.00;;;18.80;93.80;;;;;;4997992;28;20022;-89
2023/05/31 08:44:54;;;;;;;7.70;4.40;;;18.90;93.40;;;;;;4997283;28;20026;-89
2023/05/31 08:47:29;;;;;;;6.53;4.03;;;19.00;93.30;;;;;;4998198;28;20018;-90
2023/05/31 08:49:55;;;;;;;8.48;4.45;;;19.10;93.20;;;;;;4996471;28;20030;-88
2023/05/31 08:52:21;;;;;;;6.55;3.80;;;19.10;93.20;;;;;;4988520;28;20047;-88
2023/05/31 08:54:49;;;;;;;7.18;4.00;;;19.30;93.30;;;;;;4961341;28;20054;-91
2023/05/31 08:57:15;;;;;;;8.52;4.32;;;19.40;93.10;;;;;;4977715;28;20118;-90
2023/05/31 08:59:43;;;;;;;7.22;3.50;;;19.40;92.90;;;;;;4976875;28;20031;-89
2023/05/31 09:02:10;;;;;;;6.13;3.67;;;19.50;92.90;;;;;;4998152;28;20031;-88
2023/05/31 09:04:36;;;;;;;7.65;3.90;;;19.60;92.80;;;;;;5000265;28;20524;-90
2023/05/31 09:07:01;;;;;;;5.18;3.67;;;19.70;92.70;;;;;;4984448;28;20033;-90
2023/05/31 09:09:27;;;;;;;6.55;3.30;;;19.80;92.50;;;;;;5000326;28;20470;-89
2023/05/31 09:11:53;;;;;;;7.45;3.53;;;19.90;92.10;;;;;;4999807;28;20038;-89
2023/05/31 09:14:19;;;;;;;8.02;4.18;;;19.90;92.10;;;;;;5006879;28;20022;-89
2023/05/31 09:16:46;;;;;;;6.13;3.67;;;20.00;91.80;;;;;;5040664;28;20108;-89
2023/05/31 09:19:15;;;;;;;8.75;4.13;;;20.00;91.70;;;;;;5019311;28;20022;-89
2023/05/31 09:21:45;;;;;;;9.45;4.00;;;20.10;91.60;;;;;;4986472;28;20093;-91
2023/05/31 09:24:12;;;;;;;10.65;3.95;;;20.20;91.20;;;;;;4986861;28;20073;-91
2023/05/31 09:26:49;;;;;;;7.50;3.92;;;20.20;91.20;;;;;;4991196;28;20022;-87
2023/05/31 09:29:17;;;;;;;7.20;2.92;;;20.30;91.20;;;;;;5016293;28;20039;-90
2023/05/31 09:31:46;;;;;;;8.48;3.60;;;20.30;91.10;;;;;;5035814;28;20018;-86
2023/05/31 09:34:30;;;;;;;7.65;3.88;;;20.40;90.90;;;;;;5039692;28;20026;-89
2023/05/31 09:36:59;;;;;;;6.28;3.30;;;20.50;90.70;;;;;;5022862;28;20054;-91
2023/05/31 09:39:25;;;;;;;7.07;4.28;;;20.60;90.50;;;;;;5022525;28;20017;-87
2023/05/31 09:41:51;;;;;;;6.57;3.28;;;20.60;90.30;;;;;;5022939;28;20014;-87
2023/05/31 09:44:18;;;;;;;7.35;3.15;;;20.70;90.40;;;;;;5022535;28;20048;-89
2023/05/31 09:46:47;;;;;;;6.20;3.28;;;20.70;90.00;;;;;;4999896;28;20049;-89
2023/05/31 09:49:16;;;;;;;4.30;2.60;;;20.80;90.10;;;;;;5000731;28;20401;-87
2023/05/31 09:51:52;;;;;;;5.95;2.88;;;20.90;90.20;;;;;;4984840;28;20022;-87
2023/05/31 09:54:22;;;;;;;6.53;3.22;;;21.00;90.20;;;;;;4980029;28;20030;-89
2023/05/31 09:56:48;;;;;;;5.93;3.63;;;21.00;90.10;;;;;;4996293;28;20022;-89
2023/05/31 09:59:15;;;;;;;5.93;3.10;;;21.10;89.60;;;;;;4995419;28;20060;-90
2023/05/31 10:01:41;;;;;;;5.32;2.90;;;21.10;89.10;;;;;;4979179;28;20113;-89
2023/05/31 10:04:07;;;;;;;8.10;3.55;;;21.20;89.00;;;;;;4980758;28;20050;-87
2023/05/31 10:06:37;;;;;;;5.72;3.20;;;21.20;87.50;;;;;;4981115;28;20041;-87
2023/05/31 10:09:07;;;;;;;5.40;2.88;;;21.30;87.40;;;;;;5017759;28;20040;-87
2023/05/31 10:11:37;;;;;;;10.20;3.22;;;21.40;87.50;;;;;;4981575;28;20069;-88
2023/05/31 10:14:12;;;;;;;6.00;2.60;;;21.40;86.40;;;;;;4995718;28;20032;-89
2023/05/31 10:16:49;;;;;;;4.40;2.33;;;21.50;86.10;;;;;;4995542;28;20022;-88
2023/05/31 10:19:24;;;;;;;5.10;2.22;;;21.50;85.80;;;;;;4999158;28;20041;-87
2023/05/31 10:21:50;;;;;;;6.43;2.90;;;21.60;86.10;;;;;;4986470;28;20439;-88
2023/05/31 10:24:42;;;;;;;6.05;2.75;;;21.60;85.80;;;;;;4993848;28;20105;-87
2023/05/31 10:27:25;;;;;;;6.78;2.42;;;21.60;85.20;;;;;;4971338;28;20378;-87
2023/05/31 10:29:53;;;;;;;5.85;2.47;;;21.60;85.10;;;;;;5005500;28;20321;-87
2023/05/31 10:32:25;;;;;;;6.68;2.75;;;21.70;85.00;;;;;;4990708;28;20458;-87
2023/05/31 10:34:52;;;;;;;5.57;2.50;;;21.80;84.60;;;;;;5013289;28;20018;-88
2023/05/31 10:37:19;;;;;;;4.35;2.30;;;21.80;84.20;;;;;;5000248;28;20023;-87
2023/05/31 10:40:05;;;;;;;5.97;2.47;;;21.90;84.40;;;;;;4996505;28;20022;-87
2023/05/31 10:42:59;;;;;;;6.10;3.05;;;21.90;84.30;;;;;;4990849;28;20027;-88
2023/05/31 10:45:28;;;;;;;5.07;2.28;;;21.90;83.20;;;;;;5016040;28;20025;-87
2023/05/31 10:48:29;;;;;;;7.20;2.70;;;21.90;83.10;;;;;;5016074;28;20025;-86
2023/05/31 10:51:01;;;;;;;5.68;2.20;;;22.00;82.70;;;;;;5005166;28;20100;-87
2023/05/31 10:53:34;;;;;;;6.70;2.85;;;22.00;82.70;;;;;;4980126;28;20556;-88
2023/05/31 10:56:05;;;;;;;4.60;2.40;;;22.00;82.70;;;;;;4983835;28;20038;-88
2023/05/31 10:58:38;;;;;;;6.70;2.35;;;22.10;82.80;;;;;;4996227;28;20022;-88
2023/05/31 11:01:13;;;;;;;6.43;2.30;;;22.10;83.60;;;;;;4979189;28;20031;-88
2023/05/31 11:03:49;;;;;;;5.50;2.47;;;22.20;82.80;;;;;;5021586;28;20052;-91
2023/05/31 11:06:19;;;;;;;6.07;1.92;;;22.20;82.40;;;;;;4983726;28;20102;-90
2023/05/31 11:09:17;;;;;;;6.10;2.38;;;22.20;82.80;;;;;;4997013;28;20034;-89
2023/05/31 11:11:46;;;;;;;5.82;2.90;;;22.30;82.50;;;;;;4988535;28;20092;-89
2023/05/31 11:14:26;;;;;;;7.70;2.50;;;22.30;82.00;;;;;;4977903;28;20022;-89
2023/05/31 11:17:01;;;;;;;5.15;2.30;;;22.30;81.80;;;;;;5000466;28;20013;-90
2023/05/31 11:19:38;;;;;;;5.65;2.72;;;22.40;81.90;;;;;;5014623;28;20458;-90
2023/05/31 11:22:07;;;;;;;5.60;2.45;;;22.40;81.40;;;;;;4997438;28;20462;-89
2023/05/31 11:24:51;;;;;;;6.95;2.58;;;22.50;80.60;;;;;;4981135;28;20392;-89
2023/05/31 11:27:19;;;;;;;4.75;2.30;;;22.50;80.10;;;;;;4997911;28;20168;-90
2023/05/31 11:29:46;;;;;;;6.40;2.53;;;22.60;80.50;;;;;;5003219;28;20090;-88
2023/05/31 11:32:13;;;;;;;4.35;2.20;;;22.60;80.40;;;;;;5016975;28;20058;-89
2023/05/31 11:34:53;;;;;;;7.07;2.72;;;22.70;79.90;;;;;;5020912;28;20034;-90
2023/05/31 11:37:21;;;;;;;8.82;2.80;;;22.70;79.60;;;;;;5021214;28;20022;-88
2023/05/31 11:39:50;;;;;;;6.53;2.90;;;22.70;79.70;;;;;;5016973;28;20038;-89
2023/05/31 11:42:16;;;;;;;7.45;2.70;;;22.70;79.30;;;;;;5011667;28;20022;-88
2023/05/31 11:44:46;;;;;;;6.65;2.50;;;22.70;78.50;;;;;;5018346;28;20401;-89
2023/05/31 11:47:18;;;;;;;5.65;2.38;;;22.80;78.10;;;;;;5006238;28;20061;-89
2023/05/31 11:49:45;;;;;;;6.20;2.45;;;22.80;78.60;;;;;;4976028;28;20394;-89
2023/05/31 11:52:15;;;;;;;6.45;2.80;;;22.80;78.40;;;;;;4989506;28;20030;-87
2023/05/31 11:54:44;;;;;;;5.03;2.45;;;22.80;78.30;;;;;;4988414;28;20027;-89
2023/05/31 11:57:10;;;;;;;7.25;2.67;;;22.90;78.60;;;;;;4977530;28;20455;-90
2023/05/31 11:59:37;;;;;;;7.22;2.28;;;22.90;78.50;;;;;;4994489;28;20044;-90
2023/05/31 12:02:05;;;;;;;4.25;2.28;;;23.00;78.80;;;;;;4993842;28;20034;-89
2023/05/31 12:04:37;;;;;;;5.63;2.45;;;23.00;78.80;;;;;;4995133;28;20031;-89
2023/05/31 12:07:11;;;;;;;8.40;2.95;;;23.10;78.60;;;;;;4979177;28;20041;-90
2023/05/31 12:09:37;;;;;;;6.40;2.85;;;23.10;78.00;;;;;;4980065;28;20132;-88
2023/05/31 12:12:07;;;;;;;6.75;2.50;;;23.20;77.80;;;;;;4996741;28;20029;-90
2023/05/31 12:14:33;;;;;;;6.63;2.60;;;23.20;77.90;;;;;;4996811;28;20112;-90
2023/05/31 12:17:03;;;;;;;6.00;2.63;;;23.30;78.20;;;;;;5002827;28;20053;-90
2023/05/31 12:19:29;;;;;;;7.63;3.00;;;23.30;78.20;;;;;;4990366;28;20034;-90
2023/05/31 12:21:55;;;;;;;6.70;2.67;;;23.40;77.90;;;;;;4977087;28;20026;-87
2023/05/31 12:24:23;;;;;;;4.85;2.58;;;23.40;77.60;;;;;;4993672;28;20030;-90
2023/05/31 12:26:49;;;;;;;4.47;2.47;;;23.40;77.50;;;;;;4976769;28;20467;-89
2023/05/31 12:29:17;;;;;;;5.25;2.50;;;23.50;77.40;;;;;;4979234;28;20035;-91
2023/05/31 12:31:46;;;;;;;5.40;2.53;;;23.50;77.40;;;;;;4997196;28;20029;-89
2023/05/31 12:34:16;;;;;;;4.43;2.63;;;23.60;77.70;;;;;;5005440;28;20022;-90
2023/05/31 12:36:47;;;;;;;7.88;2.90;;;23.60;77.30;;;;;;4999516;28;20030;-87
2023/05/31 12:39:17;;;;;;;6.68;3.05;;;23.60;77.30;;;;;;4982097;28;20037;-89
2023/05/31 12:41:50;;;;;;;7.13;3.08;;;23.70;77.30;;;;;;4999157;28;20030;-90
2023/05/31 12:44:24;;;;;;;6.00;3.05;;;23.70;76.90;;;;;;5008108;28;20022;-85
2023/05/31 12:46:51;;;;;;;5.70;2.50;;;23.70;77.10;;;;;;5017687;28;20049;-87